Time;durP1;ratioP1;P1;durP2;ratioP2;P2;SDS_P1;SDS_P2;PMS_P1;PMS_P2;Temp;Humidity;BMP_temperature;BMP_pressure;BME280_temperature;BME280_humidity;BME280_pressure;Samples;Min_cycle;Max_cycle;Signal;HPM_P1;HPM_P2
2022/01/23 00:00:33;;;;;;;11.68;8.18;;;8.30;84.10;;;;;;5058003;28;19919;-79
2022/01/23 00:03:01;;;;;;;13.77;9.85;;;8.30;84.20;;;;;;5062049;28;20483;-79
2022/01/23 00:05:34;;;;;;;13.82;9.32;;;8.20;84.10;;;;;;5073861;28;20028;-78
2022/01/23 00:08:00;;;;;;;14.55;9.25;;;8.20;84.20;;;;;;5052404;28;20021;-77
2022/01/23 00:10:26;;;;;;;14.00;9.77;;;8.20;84.10;;;;;;5058322;28;20090;-78
2022/01/23 00:13:05;;;;;;;15.85;10.65;;;8.20;84.20;;;;;;5058356;28;20134;-78
2022/01/23 00:18:14;;;;;;;16.35;10.95;;;8.10;84.20;;;;;;5077548;28;20104;-78
2022/01/23 00:20:40;;;;;;;18.30;12.32;;;8.10;84.30;;;;;;5074246;28;20111;-78
2022/01/23 00:23:13;;;;;;;15.98;10.90;;;8.10;84.30;;;;;;5073393;28;20029;-79
2022/01/23 00:31:08;;;;;;;16.63;10.60;;;8.20;84.40;;;;;;5071852;28;20043;-79
2022/01/23 00:33:33;;;;;;;17.85;12.38;;;8.20;84.40;;;;;;5078609;28;20044;-80
2022/01/23 00:35:59;;;;;;;16.80;11.63;;;8.20;84.40;;;;;;5081998;28;20031;-80
2022/01/23 00:38:24;;;;;;;18.10;12.35;;;8.10;84.40;;;;;;5079303;28;20149;-80
2022/01/23 00:40:50;;;;;;;16.85;11.63;;;8.10;84.40;;;;;;5075579;28;20396;-80
2022/01/23 00:43:34;;;;;;;18.50;12.52;;;8.20;84.50;;;;;;5077593;28;20041;-80
2022/01/23 00:46:21;;;;;;;16.90;11.90;;;8.20;84.30;;;;;;5074028;28;20020;-80
2022/01/23 00:51:21;;;;;;;16.98;11.18;;;8.20;84.40;;;;;;5081894;28;20020;-81
2022/01/23 00:53:47;;;;;;;19.83;12.73;;;8.20;84.50;;;;;;5080802;28;20075;-79
2022/01/23 00:56:13;;;;;;;18.55;12.77;;;8.20;84.60;;;;;;5069741;28;20036;-79
2022/01/23 00:58:38;;;;;;;22.42;14.88;;;8.20;84.70;;;;;;5077888;28;20024;-78
2022/01/23 01:01:04;;;;;;;21.10;14.18;;;8.10;84.60;;;;;;5068526;28;20028;-78
2022/01/23 01:03:30;;;;;;;22.60;15.63;;;8.10;84.60;;;;;;5079892;28;20070;-78
2022/01/23 01:05:55;;;;;;;19.00;13.63;;;8.10;84.60;;;;;;5074508;28;20031;-79
2022/01/23 01:08:21;;;;;;;21.88;15.38;;;8.10;84.60;;;;;;5080382;28;20021;-80
2022/01/23 01:10:59;;;;;;;20.55;14.63;;;8.10;84.70;;;;;;5076161;28;20032;-79
2022/01/23 01:13:30;;;;;;;23.38;14.43;;;8.10;84.60;;;;;;5075609;28;20499;-79
2022/01/23 01:32:38;;;;;;;18.13;12.38;;;8.10;84.70;;;;;;5063897;28;20430;-77
2022/01/23 01:35:15;;;;;;;20.42;12.57;;;8.10;84.70;;;;;;5063545;28;20036;-77
2022/01/23 01:37:41;;;;;;;20.17;13.63;;;8.20;84.70;;;;;;5060855;28;20059;-78
2022/01/23 01:40:07;;;;;;;18.88;13.10;;;8.20;84.60;;;;;;5065834;28;20091;-78
2022/01/23 01:42:33;;;;;;;20.52;13.63;;;8.10;84.60;;;;;;5060495;28;20111;-78
2022/01/23 01:44:58;;;;;;;17.90;12.55;;;8.10;84.60;;;;;;5060761;28;20117;-79
2022/01/23 01:47:24;;;;;;;17.67;13.30;;;8.20;84.70;;;;;;5063884;28;20024;-78
2022/01/23 01:49:49;;;;;;;19.08;13.18;;;8.20;84.60;;;;;;5065110;28;20036;-78
2022/01/23 01:52:15;;;;;;;18.35;12.85;;;8.20;84.70;;;;;;5064344;28;20025;-78
2022/01/23 01:54:40;;;;;;;14.38;10.57;;;8.20;84.60;;;;;;5062171;28;20035;-78
2022/01/23 01:57:09;;;;;;;18.42;12.50;;;8.20;84.70;;;;;;5057756;28;20031;-78
2022/01/23 02:00:10;;;;;;;19.67;12.93;;;8.20;84.80;;;;;;5063609;28;20016;-77
2022/01/23 02:10:47;;;;;;;17.70;12.73;;;8.20;84.60;;;;;;5064692;28;20056;-78
2022/01/23 02:13:17;;;;;;;19.13;12.55;;;8.20;84.60;;;;;;5062233;28;20032;-80
2022/01/23 02:18:28;;;;;;;18.38;12.82;;;8.20;84.70;;;;;;5063161;28;20392;-78
2022/01/23 02:24:02;;;;;;;16.25;11.82;;;8.20;84.70;;;;;;5068841;28;20052;-79
2022/01/23 02:56:38;;;;;;;18.00;12.80;;;8.20;84.70;;;;;;5056440;28;20041;-78
2022/01/23 02:59:14;;;;;;;17.48;11.95;;;8.20;84.80;;;;;;5068418;28;20416;-78
2022/01/23 03:04:24;;;;;;;18.40;11.75;;;8.20;84.80;;;;;;5069335;28;20089;-79
2022/01/23 03:25:29;;;;;;;19.58;12.77;;;8.20;84.80;;;;;;5059329;28;20123;-78
2022/01/23 03:29:01;;;;;;;17.80;12.25;;;8.30;84.80;;;;;;5065568;28;20043;-78
2022/01/23 03:30:52;;;;;;;16.05;11.68;;;8.30;84.60;;;;;;5066725;28;20060;-78
2022/01/23 03:33:17;;;;;;;17.40;12.20;;;8.30;84.50;;;;;;5060813;28;20029;-77
2022/01/23 03:35:43;;;;;;;17.63;11.88;;;8.30;84.50;;;;;;5063440;28;20655;-78
2022/01/23 03:38:09;;;;;;;17.73;12.05;;;8.30;84.30;;;;;;5063963;28;20403;-78
2022/01/23 03:40:34;;;;;;;14.98;10.63;;;8.30;84.30;;;;;;5059186;28;20063;-78
2022/01/23 03:43:09;;;;;;;16.23;11.38;;;8.30;84.30;;;;;;5061740;28;20680;-78
2022/01/23 03:50:41;;;;;;;15.88;11.10;;;8.40;84.30;;;;;;5070271;28;20137;-78
2022/01/23 03:53:06;;;;;;;19.85;12.93;;;8.40;84.20;;;;;;5066201;28;20395;-78
2022/01/23 03:55:32;;;;;;;17.42;11.32;;;8.40;84.20;;;;;;5071469;28;20020;-77
2022/01/23 03:57:58;;;;;;;16.58;11.40;;;8.30;84.20;;;;;;5064399;28;20093;-77
2022/01/23 04:00:24;;;;;;;14.20;9.70;;;8.30;84.20;;;;;;5066043;28;20028;-77
2022/01/23 04:02:50;;;;;;;17.38;11.27;;;8.30;84.20;;;;;;5066939;28;20039;-77
2022/01/23 04:05:16;;;;;;;15.85;11.15;;;8.30;84.30;;;;;;5067911;28;20025;-78
2022/01/23 04:07:42;;;;;;;16.98;11.48;;;8.30;84.30;;;;;;5064638;28;20120;-77
2022/01/23 04:10:09;;;;;;;16.35;11.00;;;8.40;84.30;;;;;;5062986;28;20025;-76
2022/01/23 04:12:57;;;;;;;16.55;11.20;;;8.40;84.30;;;;;;5068212;28;20391;-77
2022/01/23 04:48:45;;;;;;;14.25;9.90;;;8.20;84.50;;;;;;5069156;28;20075;-77
2022/01/23 05:04:29;;;;;;;12.27;9.18;;;8.20;84.80;;;;;;5065382;28;20029;-78
2022/01/23 05:07:03;;;;;;;11.50;8.93;;;8.20;84.80;;;;;;5068073;28;20429;-78
2022/01/23 05:09:30;;;;;;;12.45;8.90;;;8.20;84.80;;;;;;5063598;28;20048;-78
2022/01/23 05:12:07;;;;;;;11.43;8.70;;;8.20;84.70;;;;;;5059342;28;20054;-78
2022/01/23 05:14:38;;;;;;;11.43;8.52;;;8.20;84.90;;;;;;5058819;28;20016;-78
2022/01/23 05:17:06;;;;;;;12.25;8.57;;;8.20;84.90;;;;;;5059306;28;20077;-77
2022/01/23 05:19:33;;;;;;;12.80;9.10;;;8.20;84.90;;;;;;5062845;28;20051;-77
2022/01/23 05:24:31;;;;;;;11.88;8.00;;;8.20;84.80;;;;;;5059126;28;20033;-78
2022/01/23 05:27:02;;;;;;;12.25;9.18;;;8.20;84.80;;;;;;5061463;28;20070;-77
2022/01/23 05:29:28;;;;;;;13.02;9.20;;;8.20;84.80;;;;;;5068053;28;20116;-77
2022/01/23 05:31:53;;;;;;;13.65;8.90;;;8.20;84.80;;;;;;5065787;28;20104;-78
2022/01/23 05:34:23;;;;;;;13.45;9.95;;;8.30;84.60;;;;;;5062913;28;20028;-77
2022/01/23 05:36:50;;;;;;;11.50;8.68;;;8.30;84.50;;;;;;5067296;28;20040;-77
2022/01/23 05:39:21;;;;;;;12.00;8.40;;;8.30;84.40;;;;;;5068739;28;20024;-77
2022/01/23 05:41:53;;;;;;;10.30;7.70;;;8.30;84.50;;;;;;5062450;28;20037;-77
2022/01/23 05:44:18;;;;;;;9.32;7.15;;;8.20;84.40;;;;;;5062014;28;20275;-78
2022/01/23 05:46:44;;;;;;;10.00;7.70;;;8.20;84.40;;;;;;5066771;28;20078;-78
2022/01/23 05:49:10;;;;;;;9.07;7.00;;;8.20;84.40;;;;;;5063248;28;20647;-78
2022/01/23 05:51:35;;;;;;;9.70;7.03;;;8.20;84.40;;;;;;5069319;28;20028;-79
2022/01/23 05:54:01;;;;;;;10.98;7.78;;;8.10;85.10;;;;;;5062055;28;20031;-79
2022/01/23 05:56:26;;;;;;;9.60;7.18;;;8.10;84.60;;;;;;5055541;28;20037;-77
2022/01/23 05:58:53;;;;;;;11.38;7.80;;;8.10;84.60;;;;;;5065714;28;20073;-79
2022/01/23 06:01:19;;;;;;;9.70;7.53;;;8.10;84.60;;;;;;5061306;28;20029;-79
2022/01/23 06:03:44;;;;;;;8.55;6.65;;;8.20;84.60;;;;;;5062568;28;20166;-80
2022/01/23 06:06:10;;;;;;;10.32;7.60;;;8.10;84.50;;;;;;5060551;28;20032;-80
2022/01/23 06:08:35;;;;;;;9.25;7.32;;;8.10;84.40;;;;;;5062526;28;20454;-82
2022/01/23 06:11:01;;;;;;;10.13;6.88;;;8.10;84.50;;;;;;5064573;28;20146;-80
2022/01/23 06:13:28;;;;;;;9.45;6.78;;;8.10;84.50;;;;;;5059374;28;20024;-80
2022/01/23 06:15:54;;;;;;;7.60;6.07;;;8.10;84.60;;;;;;5063263;28;20052;-80
2022/01/23 06:18:20;;;;;;;7.65;5.70;;;8.10;84.60;;;;;;5059853;28;20036;-79
2022/01/23 06:20:46;;;;;;;8.63;6.65;;;8.10;84.70;;;;;;5066361;28;20029;-80
2022/01/23 06:23:12;;;;;;;9.10;7.15;;;8.10;84.70;;;;;;5067490;28;20503;-80
2022/01/23 06:25:42;;;;;;;8.90;6.65;;;8.10;84.80;;;;;;5064696;28;20024;-80
2022/01/23 06:28:08;;;;;;;8.85;6.75;;;8.10;84.70;;;;;;5065784;28;20024;-80
2022/01/23 06:30:35;;;;;;;8.98;6.97;;;8.10;84.60;;;;;;5057801;28;20017;-80
2022/01/23 06:33:00;;;;;;;7.90;6.07;;;8.10;84.50;;;;;;5075658;28;20025;-81
2022/01/23 06:35:28;;;;;;;6.97;5.53;;;8.20;84.50;;;;;;5064710;28;20031;-80
2022/01/23 06:37:53;;;;;;;5.97;4.78;;;8.10;84.40;;;;;;5056257;28;20028;-80
2022/01/23 06:40:19;;;;;;;6.60;4.93;;;8.10;84.50;;;;;;5063622;28;20075;-81
2022/01/23 06:42:45;;;;;;;5.90;4.60;;;8.10;84.50;;;;;;5067101;28;20071;-82
2022/01/23 06:45:11;;;;;;;5.65;4.70;;;8.10;84.50;;;;;;5052938;28;20118;-81
2022/01/23 06:47:36;;;;;;;5.53;4.25;;;8.10;84.50;;;;;;5063310;28;20379;-82
2022/01/23 06:50:03;;;;;;;5.47;4.47;;;8.10;84.60;;;;;;5064680;28;20032;-82
2022/01/23 06:52:29;;;;;;;5.57;4.32;;;8.10;84.70;;;;;;5064577;28;20111;-82
2022/01/23 06:54:54;;;;;;;5.35;4.10;;;8.10;84.90;;;;;;5061079;28;20051;-82
2022/01/23 06:57:20;;;;;;;5.13;4.18;;;8.10;84.90;;;;;;5062427;28;20037;-82
2022/01/23 06:59:45;;;;;;;5.30;4.35;;;8.10;84.90;;;;;;5062174;28;20024;-82
2022/01/23 07:02:11;;;;;;;5.03;4.32;;;8.10;84.90;;;;;;5059750;28;20159;-82
2022/01/23 07:04:36;;;;;;;6.55;4.72;;;8.10;84.90;;;;;;5059961;28;20027;-81
2022/01/23 07:07:03;;;;;;;5.35;4.50;;;8.10;84.90;;;;;;5061259;28;20016;-82
2022/01/23 07:09:28;;;;;;;6.32;5.05;;;8.10;84.90;;;;;;5067505;28;20055;-81
2022/01/23 07:11:54;;;;;;;6.57;5.40;;;8.10;84.80;;;;;;5057777;28;20020;-82
2022/01/23 07:14:20;;;;;;;5.88;4.65;;;8.20;84.80;;;;;;5060669;28;20375;-82
2022/01/23 07:16:46;;;;;;;6.40;4.90;;;8.20;84.70;;;;;;5061631;28;20032;-81
2022/01/23 07:19:11;;;;;;;6.60;5.40;;;8.10;84.70;;;;;;5067722;28;20055;-82
2022/01/23 07:21:37;;;;;;;6.50;5.40;;;8.20;84.80;;;;;;5069278;28;20028;-82
2022/01/23 07:24:03;;;;;;;6.00;5.00;;;8.20;84.60;;;;;;5071681;28;20029;-80
2022/01/23 07:26:29;;;;;;;6.65;5.20;;;8.20;84.60;;;;;;5065830;28;20251;-80
2022/01/23 07:28:57;;;;;;;7.32;4.97;;;8.20;84.40;;;;;;5079715;28;20020;-81
2022/01/23 07:34:05;;;;;;;7.00;5.63;;;8.20;84.40;;;;;;5055653;28;20445;-79
2022/01/23 07:36:32;;;;;;;7.07;5.80;;;8.20;84.40;;;;;;5062801;28;20589;-81
2022/01/23 07:38:58;;;;;;;7.75;6.00;;;8.20;84.40;;;;;;5066517;28;20021;-81
2022/01/23 07:41:24;;;;;;;6.90;5.70;;;8.20;84.30;;;;;;5060981;28;20124;-81
2022/01/23 07:43:50;;;;;;;8.60;6.43;;;8.20;84.30;;;;;;5058586;28;20103;-81
2022/01/23 07:46:15;;;;;;;8.05;6.53;;;8.10;84.30;;;;;;5063510;28;20029;-80
2022/01/23 07:48:41;;;;;;;8.45;6.55;;;8.10;84.30;;;;;;5063697;28;20013;-79
2022/01/23 07:51:07;;;;;;;8.38;6.60;;;8.10;84.30;;;;;;5060957;28;20028;-78
2022/01/23 07:53:33;;;;;;;8.65;7.07;;;8.10;84.30;;;;;;5057006;28;20055;-79
2022/01/23 07:55:59;;;;;;;9.60;7.60;;;8.10;84.30;;;;;;5067243;28;20055;-80
2022/01/23 07:58:24;;;;;;;9.98;7.80;;;8.10;84.20;;;;;;5057569;28;20029;-80
2022/01/23 08:00:50;;;;;;;6.63;5.15;;;8.10;84.20;;;;;;5069695;28;20055;-81
2022/01/23 08:03:15;;;;;;;8.30;6.13;;;8.10;84.30;;;;;;5068852;28;20064;-80
2022/01/23 08:05:43;;;;;;;8.52;6.88;;;8.10;84.50;;;;;;5068868;28;20057;-79
2022/01/23 08:08:09;;;;;;;8.43;6.57;;;8.10;84.50;;;;;;5063761;28;20094;-79
2022/01/23 08:10:34;;;;;;;7.65;6.45;;;8.10;84.50;;;;;;5065308;28;20112;-80
2022/01/23 08:13:03;;;;;;;9.15;6.35;;;8.10;84.40;;;;;;5060352;28;20040;-80
2022/01/23 08:15:29;;;;;;;8.15;6.43;;;8.10;84.30;;;;;;5062485;28;20487;-78
2022/01/23 08:18:07;;;;;;;7.60;6.18;;;8.10;84.40;;;;;;5065086;28;20044;-78
2022/01/23 08:20:33;;;;;;;8.32;6.05;;;8.20;84.40;;;;;;5062918;28;20024;-79
2022/01/23 08:23:02;;;;;;;7.85;6.00;;;8.10;84.40;;;;;;5063856;28;20403;-80
2022/01/23 08:25:28;;;;;;;7.00;5.50;;;8.20;84.50;;;;;;5068351;28;20616;-79
2022/01/23 08:27:55;;;;;;;7.25;5.90;;;8.20;84.50;;;;;;5066313;28;20049;-80
2022/01/23 08:30:22;;;;;;;7.90;5.93;;;8.20;84.50;;;;;;5071184;28;20048;-80
2022/01/23 08:32:48;;;;;;;7.50;6.32;;;8.20;84.60;;;;;;5064586;28;20074;-80
2022/01/23 08:35:13;;;;;;;6.43;5.32;;;8.20;84.60;;;;;;5069197;28;20025;-79
2022/01/23 08:37:39;;;;;;;7.40;5.43;;;8.20;84.60;;;;;;5065256;28;20061;-80
2022/01/23 08:40:16;;;;;;;6.45;5.25;;;8.20;84.70;;;;;;5064366;28;20036;-79
2022/01/23 08:42:42;;;;;;;7.72;5.43;;;8.20;84.80;;;;;;5066538;28;20025;-79
2022/01/23 08:45:08;;;;;;;6.55;5.07;;;8.20;84.80;;;;;;5069124;28;20035;-79
2022/01/23 08:47:34;;;;;;;7.53;5.80;;;8.20;84.80;;;;;;5062782;28;20454;-79
2022/01/23 08:49:59;;;;;;;6.70;5.50;;;8.20;84.80;;;;;;5061463;28;20048;-80
2022/01/23 08:52:25;;;;;;;7.20;5.70;;;8.30;84.70;;;;;;5066829;28;20139;-79
2022/01/23 08:54:56;;;;;;;6.40;4.90;;;8.40;84.50;;;;;;5059184;28;20028;-78
2022/01/23 08:57:22;;;;;;;7.05;5.25;;;8.40;84.40;;;;;;5065238;28;20039;-79
2022/01/23 08:59:48;;;;;;;6.25;5.07;;;8.40;84.50;;;;;;5061584;28;20028;-79
2022/01/23 09:02:14;;;;;;;6.45;5.00;;;8.30;84.40;;;;;;5063716;28;20112;-77
2022/01/23 09:04:39;;;;;;;6.03;4.63;;;8.40;84.50;;;;;;5065465;28;20466;-78
2022/01/23 09:07:05;;;;;;;6.75;4.97;;;8.40;84.40;;;;;;5066009;28;20024;-79
2022/01/23 09:09:31;;;;;;;5.70;4.78;;;8.40;84.40;;;;;;5060085;28;20054;-77
2022/01/23 09:12:05;;;;;;;6.03;4.50;;;8.40;84.40;;;;;;5065479;28;20029;-77
2022/01/23 09:14:31;;;;;;;6.07;4.90;;;8.40;84.40;;;;;;5064574;28;20055;-79
2022/01/23 09:16:57;;;;;;;5.85;4.72;;;8.50;84.40;;;;;;5065420;28;20056;-79
2022/01/23 09:19:24;;;;;;;6.07;4.53;;;8.50;84.20;;;;;;5067336;28;20023;-81
2022/01/23 09:21:51;;;;;;;4.93;3.90;;;8.50;84.10;;;;;;5069111;28;20129;-79
2022/01/23 09:24:18;;;;;;;4.90;3.88;;;8.50;84.10;;;;;;5060759;28;20017;-78
2022/01/23 09:26:51;;;;;;;4.80;3.92;;;8.60;84.20;;;;;;5063712;28;20028;-79
2022/01/23 09:29:24;;;;;;;4.50;3.67;;;8.60;84.10;;;;;;5064203;28;20387;-77
2022/01/23 09:31:50;;;;;;;5.07;3.80;;;8.50;84.00;;;;;;5074500;28;20142;-85
2022/01/23 09:34:18;;;;;;;5.13;3.88;;;8.60;84.00;;;;;;5071209;28;20085;-77
2022/01/23 09:36:44;;;;;;;3.75;3.17;;;8.60;84.00;;;;;;5075648;28;20486;-76
2022/01/23 09:39:14;;;;;;;4.60;3.38;;;8.70;83.90;;;;;;5062773;28;20024;-78
2022/01/23 09:41:45;;;;;;;4.35;3.35;;;8.70;83.90;;;;;;5073563;28;20043;-78
2022/01/23 09:44:13;;;;;;;4.70;3.42;;;8.70;83.80;;;;;;5072767;28;20017;-77
2022/01/23 09:46:39;;;;;;;3.70;3.00;;;8.70;83.80;;;;;;5071883;28;20033;-77
2022/01/23 09:49:05;;;;;;;3.55;2.92;;;8.70;83.80;;;;;;5088840;28;20113;-79
2022/01/23 09:51:34;;;;;;;3.58;2.92;;;8.70;83.80;;;;;;5076814;28;20021;-81
2022/01/23 09:54:00;;;;;;;3.83;2.83;;;8.70;83.90;;;;;;5071577;28;20032;-79
2022/01/23 09:56:30;;;;;;;4.50;2.60;;;8.70;83.80;;;;;;5071239;28;20020;-76
2022/01/23 09:58:57;;;;;;;2.97;2.50;;;8.70;83.80;;;;;;5065069;28;20036;-77
2022/01/23 10:01:23;;;;;;;3.22;2.53;;;8.60;83.50;;;;;;5066468;28;20115;-77
2022/01/23 10:03:49;;;;;;;2.45;2.15;;;8.50;83.40;;;;;;5079405;28;20111;-76
2022/01/23 10:06:15;;;;;;;2.50;2.10;;;8.60;83.50;;;;;;5069003;28;20030;-78
2022/01/23 10:08:41;;;;;;;2.47;1.90;;;8.60;83.40;;;;;;5070718;28;20036;-77
2022/01/23 10:11:11;;;;;;;2.28;2.00;;;8.60;83.30;;;;;;5068785;28;20021;-77
2022/01/23 10:13:38;;;;;;;2.10;1.80;;;8.70;83.30;;;;;;5062528;28;20037;-76
2022/01/23 10:16:04;;;;;;;1.40;1.30;;;8.70;83.20;;;;;;5077428;28;20523;-76
2022/01/23 10:18:31;;;;;;;1.05;1.00;;;8.70;83.20;;;;;;5076228;28;20036;-77
2022/01/23 10:20:57;;;;;;;1.42;1.33;;;8.80;83.00;;;;;;5071923;28;20076;-78
2022/01/23 10:23:24;;;;;;;1.20;1.10;;;8.80;82.80;;;;;;5070095;28;20039;-77
2022/01/23 10:25:52;;;;;;;0.95;0.93;;;8.80;82.70;;;;;;5069384;28;20066;-77
2022/01/23 10:28:21;;;;;;;0.95;0.95;;;8.80;82.70;;;;;;5076984;28;20028;-77
2022/01/23 10:30:54;;;;;;;0.93;0.90;;;8.80;82.60;;;;;;5077895;28;20042;-77
2022/01/23 10:33:28;;;;;;;1.42;1.10;;;8.80;82.60;;;;;;5069441;28;20085;-76
2022/01/23 10:35:54;;;;;;;1.50;1.40;;;8.80;82.50;;;;;;5073423;28;20044;-77
2022/01/23 10:38:20;;;;;;;2.00;1.80;;;8.80;82.50;;;;;;5073940;28;20082;-77
2022/01/23 10:40:54;;;;;;;2.55;2.00;;;8.80;82.50;;;;;;5057095;28;20029;-77
2022/01/23 10:48:41;;;;;;;1.10;1.00;;;8.90;82.20;;;;;;5075609;28;20102;-77
2022/01/23 10:51:28;;;;;;;2.15;1.00;;;9.00;81.90;;;;;;5073400;28;20016;-77
2022/01/23 10:54:04;;;;;;;1.20;1.10;;;8.90;81.40;;;;;;5062819;28;20028;-76
2022/01/23 10:56:52;;;;;;;1.60;1.42;;;8.90;81.30;;;;;;5067084;28;20045;-77
2022/01/23 10:59:18;;;;;;;1.40;1.30;;;8.90;81.10;;;;;;5067952;28;20111;-77
2022/01/23 11:02:01;;;;;;;0.80;0.80;;;8.90;81.00;;;;;;5058267;28;20149;-77
2022/01/23 11:04:27;;;;;;;0.70;0.60;;;8.90;80.90;;;;;;5062235;28;20056;-77
2022/01/23 11:06:56;;;;;;;0.60;0.60;;;8.90;80.90;;;;;;5062115;28;21504;-77
2022/01/23 11:09:38;;;;;;;0.82;0.63;;;8.90;80.70;;;;;;5059884;28;20108;-78
2022/01/23 11:12:14;;;;;;;0.50;0.50;;;8.90;80.50;;;;;;5059444;28;20043;-76
2022/01/23 11:17:26;;;;;;;0.70;0.70;;;9.00;80.40;;;;;;5066923;28;20074;-76
2022/01/23 11:20:00;;;;;;;1.63;1.30;;;9.00;80.30;;;;;;5066296;28;20023;-76
2022/01/23 11:22:31;;;;;;;0.85;0.80;;;9.00;80.10;;;;;;5055737;28;21373;-76
2022/01/23 11:25:00;;;;;;;1.30;0.90;;;9.00;80.10;;;;;;5059262;28;20032;-76
2022/01/23 11:27:32;;;;;;;23.15;16.13;;;9.00;80.10;;;;;;5060448;28;20021;-76
2022/01/23 11:30:07;;;;;;;9.98;8.98;;;9.00;80.10;;;;;;5059996;28;20426;-76
2022/01/23 11:32:40;;;;;;;10.05;9.05;;;9.10;80.20;;;;;;5066498;28;20082;-76
2022/01/23 11:35:13;;;;;;;4.20;3.65;;;9.10;80.10;;;;;;5070972;28;20018;-76
2022/01/23 11:37:48;;;;;;;2.88;2.50;;;9.10;80.20;;;;;;5080050;28;20032;-76
2022/01/23 11:53:54;;;;;;;1.00;1.00;;;9.20;80.00;;;;;;5063172;28;20055;-77
2022/01/23 11:56:26;;;;;;;0.90;0.90;;;9.20;80.00;;;;;;5067487;28;20380;-77
2022/01/23 11:58:53;;;;;;;;;;;9.20;79.90;;;;;;5073889;28;20032;-76
2022/01/23 12:01:24;;;;;;;0.93;0.93;;;9.20;79.80;;;;;;5075401;28;20343;-75
2022/01/23 12:04:08;;;;;;;0.80;0.80;;;9.20;79.80;;;;;;5076035;28;20036;-74
2022/01/23 12:06:36;;;;;;;0.90;0.90;;;9.20;79.80;;;;;;5075868;28;20487;-76
2022/01/23 12:09:16;;;;;;;0.90;0.90;;;9.20;79.70;;;;;;5071875;28;20020;-75
2022/01/23 12:12:23;;;;;;;0.90;0.90;;;9.20;79.60;;;;;;5074455;28;20063;-77
2022/01/23 12:17:23;;;;;;;0.77;0.70;;;9.10;79.20;;;;;;5067487;28;20041;-75
2022/01/23 12:20:00;;;;;;;0.85;0.85;;;9.10;79.00;;;;;;5067765;28;20052;-75
2022/01/23 12:22:53;;;;;;;0.93;0.90;;;9.10;78.90;;;;;;5065741;28;20033;-77
2022/01/23 12:25:23;;;;;;;0.73;0.73;;;9.10;78.80;;;;;;5062541;28;20947;-77
2022/01/23 12:28:20;;;;;;;0.60;0.60;;;9.10;78.70;;;;;;5062488;28;20033;-76
2022/01/23 12:30:52;;;;;;;0.75;0.75;;;9.10;78.50;;;;;;5063457;28;20107;-77
2022/01/23 12:33:44;;;;;;;1.00;0.90;;;9.10;78.40;;;;;;5060290;28;20395;-77
2022/01/23 12:36:15;;;;;;;0.70;0.70;;;9.10;78.30;;;;;;5064176;28;20082;-75
2022/01/23 12:38:49;;;;;;;0.60;0.60;;;9.00;78.30;;;;;;5061200;28;20041;-75
2022/01/23 12:41:22;;;;;;;0.80;0.80;;;9.10;78.30;;;;;;5064073;28;20613;-74
2022/01/23 12:43:49;;;;;;;0.90;0.80;;;9.10;78.30;;;;;;5061353;28;21313;-75
2022/01/23 12:46:29;;;;;;;0.93;0.73;;;9.10;78.10;;;;;;5061146;28;20034;-75
2022/01/23 12:48:55;;;;;;;0.60;0.60;;;9.10;78.00;;;;;;5056376;28;20535;-75
2022/01/23 12:51:20;;;;;;;0.80;0.80;;;9.10;77.90;;;;;;5061660;28;20117;-75
2022/01/23 12:53:46;;;;;;;0.80;0.80;;;9.10;77.80;;;;;;5062074;28;20056;-76
2022/01/23 12:56:23;;;;;;;0.70;0.70;;;9.20;77.90;;;;;;5074861;28;20411;-76
2022/01/23 12:58:54;;;;;;;2.58;1.50;;;9.20;77.80;;;;;;5069736;28;20115;-75
2022/01/23 13:01:26;;;;;;;1.38;1.27;;;9.20;77.80;;;;;;5067489;28;20494;-76
2022/01/23 13:03:56;;;;;;;0.95;0.95;;;9.10;77.10;;;;;;5059353;28;20128;-78
2022/01/23 13:06:34;;;;;;;1.00;1.00;;;9.00;77.10;;;;;;5064049;28;20390;-77
2022/01/23 13:12:43;;;;;;;0.75;0.75;;;8.90;77.10;;;;;;5069208;28;20123;-78
2022/01/23 13:15:22;;;;;;;1.17;0.95;;;8.90;77.20;;;;;;5062918;28;20058;-77
2022/01/23 13:18:32;;;;;;;1.77;0.90;;;9.00;77.30;;;;;;5057053;28;20071;-76
2022/01/23 13:32:00;;;;;;;1.10;1.00;;;9.00;76.60;;;;;;5077592;28;20035;-77
2022/01/23 13:34:32;;;;;;;1.13;1.00;;;8.90;76.40;;;;;;5076227;28;20031;-77
2022/01/23 13:37:12;;;;;;;1.30;1.20;;;8.90;76.50;;;;;;5072945;28;20090;-77
2022/01/23 13:39:50;;;;;;;7.78;5.47;;;8.90;76.60;;;;;;5070013;28;20028;-77
2022/01/23 13:42:34;;;;;;;2.78;2.47;;;9.00;76.70;;;;;;5065314;28;20028;-77
2022/01/23 13:51:21;;;;;;;1.67;1.40;;;9.00;76.30;;;;;;5063116;28;20041;-78
2022/01/23 13:59:17;;;;;;;2.95;2.53;;;9.10;76.00;;;;;;5056819;28;20036;-76
2022/01/23 14:01:53;;;;;;;2.00;1.80;;;9.20;76.00;;;;;;5061701;28;20036;-78
2022/01/23 14:04:22;;;;;;;1.50;1.40;;;9.10;76.00;;;;;;5066546;28;20430;-77
2022/01/23 14:06:48;;;;;;;1.52;1.30;;;9.10;75.70;;;;;;5066905;28;20028;-77
2022/01/23 14:09:16;;;;;;;1.20;1.10;;;9.00;75.40;;;;;;5058225;28;20474;-77
2022/01/23 14:11:43;;;;;;;1.40;1.30;;;9.00;75.70;;;;;;5065237;28;20033;-77
2022/01/23 14:14:29;;;;;;;1.55;1.25;;;9.00;75.60;;;;;;5065653;28;20456;-77
2022/01/23 14:17:12;;;;;;;1.40;1.30;;;9.00;75.70;;;;;;5062439;28;20098;-78
2022/01/23 14:19:37;;;;;;;1.33;1.20;;;9.00;75.90;;;;;;5062118;28;20078;-77
2022/01/23 14:22:03;;;;;;;1.30;1.20;;;9.00;76.00;;;;;;5060980;28;20032;-77
2022/01/23 14:24:36;;;;;;;1.30;1.20;;;9.00;75.90;;;;;;5060662;28;20028;-77
2022/01/23 14:27:11;;;;;;;1.13;1.00;;;9.00;75.90;;;;;;5066916;28;20069;-78
2022/01/23 14:29:55;;;;;;;3.00;2.20;;;9.00;75.90;;;;;;5073756;28;20043;-77
2022/01/23 14:35:30;;;;;;;1.70;1.60;;;9.10;75.90;;;;;;5060615;28;20406;-78
2022/01/23 14:38:31;;;;;;;1.35;1.25;;;9.10;75.70;;;;;;5067324;28;20032;-78
2022/01/23 14:41:00;;;;;;;1.55;1.40;;;9.10;75.60;;;;;;5021060;28;20036;-77
2022/01/23 14:43:39;;;;;;;1.67;1.50;;;9.10;75.80;;;;;;5060255;28;20596;-76
2022/01/23 14:46:10;;;;;;;1.77;1.50;;;9.10;75.90;;;;;;5055625;28;20025;-78
2022/01/23 14:48:40;;;;;;;1.83;1.50;;;9.10;75.50;;;;;;5066303;28;20016;-78
2022/01/23 14:51:07;;;;;;;1.90;1.70;;;9.10;75.60;;;;;;5059170;28;20033;-78
2022/01/23 14:53:39;;;;;;;1.90;1.65;;;9.00;75.20;;;;;;5053915;28;20013;-78
2022/01/23 14:56:07;;;;;;;1.67;1.57;;;9.00;75.00;;;;;;5061338;28;20063;-78
2022/01/23 14:58:34;;;;;;;1.80;1.60;;;8.90;75.10;;;;;;5060633;28;20032;-77
2022/01/23 15:01:02;;;;;;;2.17;1.67;;;8.90;75.20;;;;;;5065832;28;20491;-78
2022/01/23 15:03:29;;;;;;;1.40;1.30;;;8.90;75.30;;;;;;5064770;28;20037;-77
2022/01/23 15:05:56;;;;;;;1.63;1.52;;;8.90;75.50;;;;;;5049709;28;20552;-78
2022/01/23 15:08:24;;;;;;;1.50;1.40;;;8.90;75.40;;;;;;5057774;28;20117;-78
2022/01/23 15:10:52;;;;;;;1.90;1.60;;;8.90;75.60;;;;;;5065696;28;20029;-79
2022/01/23 15:13:22;;;;;;;2.92;2.50;;;8.90;75.50;;;;;;5063401;28;20024;-78
2022/01/23 15:15:52;;;;;;;4.25;2.60;;;8.80;75.40;;;;;;5066786;28;20055;-78
2022/01/23 15:18:18;;;;;;;3.97;3.03;;;8.80;75.60;;;;;;5062372;28;20124;-78
2022/01/23 15:20:44;;;;;;;3.28;2.47;;;8.80;75.80;;;;;;5057940;28;20033;-78
2022/01/23 15:23:11;;;;;;;4.97;3.65;;;8.80;75.90;;;;;;5063735;28;20037;-76
2022/01/23 15:25:37;;;;;;;5.25;4.10;;;8.80;76.10;;;;;;5050150;28;20403;-76
2022/01/23 15:28:03;;;;;;;7.18;4.57;;;8.70;76.10;;;;;;5079382;28;20016;-77
2022/01/23 15:30:29;;;;;;;6.07;4.68;;;8.60;76.20;;;;;;5078087;28;20033;-79
2022/01/23 15:32:55;;;;;;;5.15;4.00;;;8.60;76.50;;;;;;5050805;28;20677;-79
2022/01/23 15:35:23;;;;;;;6.22;4.85;;;8.70;76.70;;;;;;5069008;28;20016;-80
2022/01/23 15:37:49;;;;;;;6.20;4.68;;;8.60;76.70;;;;;;5068377;28;20115;-79
2022/01/23 15:40:18;;;;;;;7.10;4.40;;;8.60;76.90;;;;;;5073581;28;20024;-79
2022/01/23 15:42:45;;;;;;;5.95;4.65;;;8.50;77.00;;;;;;5070356;28;20517;-79
2022/01/23 15:45:12;;;;;;;6.50;4.32;;;8.50;77.10;;;;;;5066234;28;20122;-79
2022/01/23 15:47:39;;;;;;;10.48;6.75;;;8.50;77.20;;;;;;5073488;28;20629;-77
2022/01/23 15:50:07;;;;;;;8.95;6.50;;;8.50;77.30;;;;;;5068208;28;20024;-78
2022/01/23 15:52:33;;;;;;;7.32;5.68;;;8.40;77.40;;;;;;5080740;28;20024;-78
2022/01/23 15:54:58;;;;;;;6.57;5.03;;;8.50;77.60;;;;;;5062474;28;20630;-77
2022/01/23 15:57:24;;;;;;;7.50;5.10;;;8.50;77.70;;;;;;5065840;28;20101;-77
2022/01/23 15:59:50;;;;;;;6.35;4.53;;;8.50;77.70;;;;;;5058251;28;20067;-78
2022/01/23 16:02:16;;;;;;;10.13;6.68;;;8.50;77.80;;;;;;5061418;28;20040;-77
2022/01/23 16:04:41;;;;;;;27.17;19.38;;;8.50;77.80;;;;;;5066959;28;20028;-77
2022/01/23 16:07:12;;;;;;;14.38;11.07;;;8.40;77.70;;;;;;5069942;28;20532;-77
2022/01/23 16:09:38;;;;;;;10.95;8.38;;;8.40;77.70;;;;;;5064005;28;20517;-75
2022/01/23 16:12:04;;;;;;;9.93;7.40;;;8.50;77.80;;;;;;5061699;28;20044;-78
2022/01/23 16:14:30;;;;;;;10.32;7.50;;;8.40;77.70;;;;;;5067385;28;20021;-78
2022/01/23 16:16:56;;;;;;;11.23;8.00;;;8.40;77.70;;;;;;5070722;28;20505;-79
2022/01/23 16:19:21;;;;;;;9.45;6.60;;;8.40;77.70;;;;;;5064947;28;20016;-78
2022/01/23 16:21:51;;;;;;;7.97;6.03;;;8.40;77.70;;;;;;5062088;28;20115;-78
2022/01/23 16:24:17;;;;;;;7.20;5.88;;;8.40;77.70;;;;;;5059620;28;20562;-77
2022/01/23 16:26:42;;;;;;;7.57;5.82;;;8.30;77.60;;;;;;5066556;28;20117;-78